Achaeos — SYMW — position and weather

sailwx.info

Track history (hours):
 
Tides and Currents Weather Stations Pressure Air Temp Water Temp Dewpoint Dewpoint Depression Visibility Wind Speed Wind Dir Waves Ship Positions

Achaeos

Last reported at 2017-Sep-24 07:00 UTC. Time now 2017-Sep-24 07:02 UTC.
Position N 37°47' E 023°27'.

Length 87 m; draft 3.5 m.

Type: Passenger vessel. MMSI: 239056300.

Date/timePositionNaut miles runAvg speedWind from/ knotsBaromVisibWave heightAir tempDewpointWater temp
2017-Sep-24 07:00N 37°47' E 023°27'713.7
2017-Sep-24 06:30N 37°52' E 023°33'713.1
2017-Sep-24 06:00N 37°57' E 023°38'0 0.1
2017-Sep-24 05:30N 37°57' E 023°38'0 0.0
2017-Sep-24 05:00N 37°57' E 023°38'  
2017-Sep-21 16:08N 37°57' E 023°39'0 0.0
2017-Sep-21 16:00N 37°57' E 023°39'612.3
2017-Sep-21 15:30N 37°52' E 023°33'714.4
2017-Sep-21 15:01N 37°47' E 023°27'4 7.0
2017-Sep-21 14:30N 37°44' E 023°25'1 1.7
2017-Sep-21 14:01N 37°43' E 023°25'5 9.2
2017-Sep-21 13:30N 37°47' E 023°27'713.3
2017-Sep-21 13:00N 37°52' E 023°33'612.7
2017-Sep-21 12:30N 37°57' E 023°38'0 0.1
2017-Sep-21 12:00N 37°57' E 023°38'0 0.0
2017-Sep-21 11:30N 37°57' E 023°38'0 0.0
2017-Sep-21 11:00N 37°57' E 023°38'0 0.0
2017-Sep-21 10:30N 37°57' E 023°38'0 0.0
2017-Sep-21 10:00N 37°57' E 023°38'3 5.1
2017-Sep-21 09:30N 37°55' E 023°36'714.6
2017-Sep-21 09:01N 37°49' E 023°30'611.3
2017-Sep-21 08:29N 37°45' E 023°25'3 7.2
2017-Sep-21 08:01N 37°43' E 023°22'2 4.2
2017-Sep-21 07:30N 37°43' E 023°25'5 9.1
2017-Sep-21 07:00N 37°47' E 023°27'713.5
2017-Sep-21 06:30N 37°52' E 023°33'612.3
2017-Sep-21 06:01N 37°57' E 023°39'0 0.0
2017-Sep-21 05:31N 37°57' E 023°39'0 0.0
2017-Sep-21 05:01N 37°57' E 023°39'0 0.0
2017-Sep-20 16:11N 37°57' E 023°39'0 0.0
2017-Sep-20 16:00N 37°57' E 023°39'612.6
2017-Sep-20 15:31N 37°52' E 023°33'713.9
2017-Sep-20 15:00N 37°47' E 023°27'5 4.8
2017-Sep-20 14:00N 37°43' E 023°24'5 9.7
2017-Sep-20 13:30N 37°47' E 023°27'713.9
2017-Sep-20 13:01N 37°52' E 023°33'612.6
2017-Sep-20 12:30N 37°57' E 023°38'0 0.0
2017-Sep-20 12:00N 37°57' E 023°38'0 0.0
2017-Sep-20 11:30N 37°57' E 023°38'0 0.0
2017-Sep-20 11:00N 37°57' E 023°38'0 0.0
2017-Sep-20 10:30N 37°57' E 023°38'0 0.0
2017-Sep-20 10:00N 37°57' E 023°38'3 6.2
2017-Sep-20 09:31N 37°54' E 023°36'713.8
2017-Sep-20 09:01N 37°49' E 023°30'611.6
2017-Sep-20 08:30N 37°45' E 023°25'3 6.8
2017-Sep-20 08:00N 37°43' E 023°22'1 3.0
2017-Sep-20 07:30N 37°43' E 023°24'5 9.1
2017-Sep-20 07:00N 37°47' E 023°27'713.7
2017-Sep-20 06:30N 37°52' E 023°33'713.3
2017-Sep-20 06:01N 37°57' E 023°38'0 0.1
2017-Sep-20 05:30N 37°57' E 023°38'0 0.0
2017-Sep-20 05:00N 37°57' E 023°38'0 0.0
2017-Sep-19 18:04N 37°57' E 023°38'0 0.1
2017-Sep-19 18:00N 37°57' E 023°38'2 3.4
2017-Sep-19 17:30N 37°57' E 023°36'4 8.2
2017-Sep-19 17:01N 37°53' E 023°34'713.7
2017-Sep-19 16:30N 37°48' E 023°29'4 8.7
2017-Sep-19 16:00N 37°45' E 023°26'1 1.8
2017-Sep-19 15:31N 37°44' E 023°25'3 5.4
2017-Sep-19 15:00N 37°42' E 023°22'0 0.0
2017-Sep-19 14:30N 37°42' E 023°22'0 0.0
2017-Sep-19 14:00N 37°42' E 023°22'0 0.0
2017-Sep-19 13:30N 37°42' E 023°22'3 5.8
2017-Sep-19 13:00N 37°44' E 023°25'4 8.9
2017-Sep-19 12:30N 37°48' E 023°28'713.6
2017-Sep-19 12:00N 37°53' E 023°34'5 9.5
2017-Sep-19 11:30N 37°57' E 023°36'2 3.4
2017-Sep-19 11:00N 37°57' E 023°38'0 0.0
2017-Sep-19 10:30N 37°57' E 023°38'0 0.0
2017-Sep-19 10:00N 37°57' E 023°38'8 8.9
2017-Sep-19 09:10N 37°51' E 023°32'213.8
2017-Sep-19 09:01N 37°49' E 023°31'612.4
2017-Sep-19 08:31N 37°45' E 023°25'3 6.7
2017-Sep-19 08:00N 37°43' E 023°22'2 3.4
2017-Sep-19 07:30N 37°43' E 023°24'5 9.3
2017-Sep-19 07:00N 37°47' E 023°27'713.8
2017-Sep-19 06:30N 37°52' E 023°33'612.8
2017-Sep-19 06:00N 37°57' E 023°38'0 0.0
2017-Sep-19 05:30N 37°57' E 023°38'0 0.0
2017-Sep-19 05:00N 37°57' E 023°38'0 0.0
2017-Sep-18 16:12N 37°57' E 023°38'0 0.4
2017-Sep-18 16:00N 37°57' E 023°38'612.9
2017-Sep-18 15:30N 37°52' E 023°33'713.9
2017-Sep-18 15:00N 37°47' E 023°27'3 6.1
2017-Sep-18 14:30N 37°44' E 023°25'2 3.8
2017-Sep-18 14:00N 37°43' E 023°23'5 9.6
2017-Sep-18 13:30N 37°47' E 023°26'713.8
2017-Sep-18 13:00N 37°52' E 023°33'713.1
2017-Sep-18 12:31N 37°57' E 023°38'0 0.2
2017-Sep-18 12:00N 37°57' E 023°38'0 0.0
2017-Sep-18 11:31N 37°57' E 023°38'0 0.0
2017-Sep-18 11:00N 37°57' E 023°38'0 0.0
2017-Sep-18 10:30N 37°57' E 023°38'0 0.0
2017-Sep-18 10:00N 37°57' E 023°38'3 6.2
2017-Sep-18 09:30N 37°55' E 023°36'714.1
2017-Sep-18 09:00N 37°49' E 023°30'611.3
2017-Sep-18 08:30N 37°45' E 023°25'3 7.0
2017-Sep-18 08:01N 37°43' E 023°22'2 4.1
2017-Sep-18 07:31N 37°43' E 023°25'1211.6
2017-Sep-18 06:29N 37°53' E 023°34'611.5
2017-Sep-18 06:00N 37°57' E 023°39'0 0.0
2017-Sep-18 05:30N 37°57' E 023°39'0 0.0
2017-Sep-18 05:00N 37°57' E 023°39'0 0.0
2017-Sep-17 17:58N 37°57' E 023°39'2 4.7
2017-Sep-17 17:30N 37°55' E 023°36'713.8
2017-Sep-17 17:01N 37°50' E 023°31'713.6
2017-Sep-17 16:31N 37°45' E 023°25'1 2.9
2017-Sep-17 16:00N 37°44' E 023°25'1 1.7
2017-Sep-17 15:30N 37°43' E 023°24'510.0
2017-Sep-17 15:00N 37°47' E 023°27'713.9
2017-Sep-17 14:31N 37°52' E 023°34'612.0
2017-Sep-17 14:00N 37°57' E 023°39'3 6.0
2017-Sep-17 13:31N 37°55' E 023°36'713.9
2017-Sep-17 13:00N 37°49' E 023°30'612.0
2017-Sep-17 12:31N 37°45' E 023°25'1 2.3
2017-Sep-17 12:00N 37°44' E 023°25'1 1.8
2017-Sep-17 11:30N 37°43' E 023°24'4 9.0
2017-Sep-17 11:00N 37°47' E 023°27'713.8
2017-Sep-17 10:30N 37°52' E 023°33'713.0
2017-Sep-17 10:00N 37°57' E 023°38'0 0.2
2017-Sep-17 09:30N 37°57' E 023°39'612.6
2017-Sep-17 09:00N 37°52' E 023°33'714.2
2017-Sep-17 08:31N 37°47' E 023°27'4 7.5
2017-Sep-17 08:00N 37°44' E 023°25'0 0.9
2017-Sep-17 07:31N 37°43' E 023°25'4 8.3
2017-Sep-17 07:00N 37°47' E 023°27'713.9
2017-Sep-17 06:31N 37°52' E 023°33'713.0
2017-Sep-17 06:00N 37°57' E 023°39'0 0.0
2017-Sep-17 05:30N 37°57' E 023°39'0 0.0
2017-Sep-17 05:00N 37°57' E 023°39'0 0.0
2017-Sep-16 18:11N 37°57' E 023°39'0 0.0
2017-Sep-16 18:00N 37°57' E 023°39'612.6
2017-Sep-16 17:30N 37°52' E 023°33'714.1
2017-Sep-16 17:01N 37°47' E 023°27'3 6.1
2017-Sep-16 16:30N 37°44' E 023°25'2 3.3
2017-Sep-16 16:01N 37°43' E 023°24'4 8.9
2017-Sep-16 15:30N 37°47' E 023°26'713.8
2017-Sep-16 15:00N 37°52' E 023°33'713.1
2017-Sep-16 14:30N 37°57' E 023°38'0 0.1
2017-Sep-16 14:00N 37°57' E 023°38'713.3
2017-Sep-16 13:30N 37°52' E 023°33'714.1
2017-Sep-16 13:01N 37°47' E 023°26'3 6.7
2017-Sep-16 12:30N 37°44' E 023°25'0 0.7
2017-Sep-16 12:01N 37°43' E 023°25'4 8.3
2017-Sep-16 11:31N 37°47' E 023°27'713.7
2017-Sep-16 11:00N 37°52' E 023°33'612.8
2017-Sep-16 10:31N 37°57' E 023°38'0 0.1
2017-Sep-16 10:00N 37°57' E 023°39'612.8
2017-Sep-16 09:30N 37°52' E 023°33'714.0
2017-Sep-16 09:00N 37°47' E 023°27'3 6.0
2017-Sep-16 08:30N 37°44' E 023°25'3 5.4
2017-Sep-16 08:00N 37°43' E 023°23'3 6.0
2017-Sep-16 07:30N 37°45' E 023°25'612.4
2017-Sep-16 07:00N 37°49' E 023°30'713.6
2017-Sep-16 06:30N 37°55' E 023°36'3 5.8
2017-Sep-16 06:00N 37°57' E 023°38'0 0.0
2017-Sep-16 05:30N 37°57' E 023°38'0 0.0
2017-Sep-16 05:00N 37°57' E 023°38'0 0.0
2017-Sep-15 18:09N 37°57' E 023°38'0 0.3
2017-Sep-15 18:00N 37°57' E 023°38'713.1
2017-Sep-15 17:30N 37°52' E 023°33'714.2
2017-Sep-15 17:00N 37°47' E 023°26'5 9.7
2017-Sep-15 16:30N 37°43' E 023°23'3 5.4
2017-Sep-15 16:01N 37°45' E 023°25'4 7.9
2017-Sep-15 15:30N 37°48' E 023°28'713.5
2017-Sep-15 15:00N 37°53' E 023°34'510.4
2017-Sep-15 14:30N 37°57' E 023°38'0 0.0
2017-Sep-15 14:00N 37°57' E 023°38'0 0.0
2017-Sep-15 13:30N 37°57' E 023°38'612.1
2017-Sep-15 13:00N 37°52' E 023°34'714.4
2017-Sep-15 12:30N 37°47' E 023°27'4 8.2
2017-Sep-15 12:00N 37°43' E 023°25'0 0.4
2017-Sep-15 11:31N 37°44' E 023°25'4 8.0
2017-Sep-15 11:01N 37°47' E 023°27'713.5
2017-Sep-15 10:31N 37°52' E 023°33'612.7
2017-Sep-15 10:00N 37°57' E 023°38'2 4.8
2017-Sep-15 09:30N 37°55' E 023°36'714.3
2017-Sep-15 09:00N 37°49' E 023°30'612.4
2017-Sep-15 08:30N 37°45' E 023°25'3 6.9
2017-Sep-15 08:00N 37°42' E 023°22'3 6.8
2017-Sep-15 07:30N 37°45' E 023°25'612.0
2017-Sep-15 07:01N 37°49' E 023°30'713.5
2017-Sep-15 06:30N 37°55' E 023°36'3 6.3
2017-Sep-15 06:00N 37°57' E 023°38'0 0.0
2017-Sep-15 05:30N 37°57' E 023°38'0 0.0
2017-Sep-15 05:00N 37°57' E 023°38'0 0.0
2017-Sep-14 16:06N 37°57' E 023°38'0 0.0
2017-Sep-14 16:00N 37°57' E 023°38'611.9
2017-Sep-14 15:31N 37°52' E 023°34'714.3
2017-Sep-14 15:00N 37°47' E 023°27'4 8.0
2017-Sep-14 14:30N 37°44' E 023°25'0 1.0
2017-Sep-14 14:00N 37°43' E 023°25'5 9.1
2017-Sep-14 13:30N 37°47' E 023°27'713.7
2017-Sep-14 13:00N 37°52' E 023°33'612.3
2017-Sep-14 12:30N 37°57' E 023°38'0 0.0
2017-Sep-14 12:00N 37°57' E 023°38'0 0.0
2017-Sep-14 11:30N 37°57' E 023°38'0 0.0
2017-Sep-14 11:00N 37°57' E 023°38'0 0.0
2017-Sep-14 10:30N 37°57' E 023°38'0 0.0
2017-Sep-14 10:00N 37°57' E 023°38'3 5.0
2017-Sep-14 09:31N 37°55' E 023°36'714.3
2017-Sep-14 09:00N 37°49' E 023°31'612.4
2017-Sep-14 08:30N 37°45' E 023°25'3 6.7
2017-Sep-14 08:00N 37°43' E 023°22'3 6.9
2017-Sep-14 07:31N 37°45' E 023°25'4 8.9
2017-Sep-14 07:00N 37°48' E 023°29'  
Track history (hours):
 
Tides and Currents Weather Stations Pressure Air Temp Water Temp Dewpoint Dewpoint Depression Visibility Wind Speed Wind Dir Waves Ship Positions

Achaeos

Last reported at 2017-Sep-24 07:00 UTC. Time now 2017-Sep-24 07:02 UTC.
Position N 37°47' E 023°27'.

Length 87 m; draft 3.5 m.

Type: Passenger vessel. MMSI: 239056300.

Date/timePositionNaut miles runAvg speedWind from/ knotsBaromVisibWave heightAir tempDewpointWater temp
2017-Sep-24 07:00N 37°47' E 023°27'713.7
2017-Sep-24 06:30N 37°52' E 023°33'713.1
2017-Sep-24 06:00N 37°57' E 023°38'0 0.1
2017-Sep-24 05:30N 37°57' E 023°38'0 0.0
2017-Sep-24 05:00N 37°57' E 023°38'  
2017-Sep-21 16:08N 37°57' E 023°39'0 0.0
2017-Sep-21 16:00N 37°57' E 023°39'612.3
2017-Sep-21 15:30N 37°52' E 023°33'714.4
2017-Sep-21 15:01N 37°47' E 023°27'4 7.0
2017-Sep-21 14:30N 37°44' E 023°25'1 1.7
2017-Sep-21 14:01N 37°43' E 023°25'5 9.2
2017-Sep-21 13:30N 37°47' E 023°27'713.3
2017-Sep-21 13:00N 37°52' E 023°33'612.7
2017-Sep-21 12:30N 37°57' E 023°38'0 0.1
2017-Sep-21 12:00N 37°57' E 023°38'0 0.0
2017-Sep-21 11:30N 37°57' E 023°38'0 0.0
2017-Sep-21 11:00N 37°57' E 023°38'0 0.0
2017-Sep-21 10:30N 37°57' E 023°38'0 0.0
2017-Sep-21 10:00N 37°57' E 023°38'3 5.1
2017-Sep-21 09:30N 37°55' E 023°36'714.6
2017-Sep-21 09:01N 37°49' E 023°30'611.3
2017-Sep-21 08:29N 37°45' E 023°25'3 7.2
2017-Sep-21 08:01N 37°43' E 023°22'2 4.2
2017-Sep-21 07:30N 37°43' E 023°25'5 9.1
2017-Sep-21 07:00N 37°47' E 023°27'713.5
2017-Sep-21 06:30N 37°52' E 023°33'612.3
2017-Sep-21 06:01N 37°57' E 023°39'0 0.0
2017-Sep-21 05:31N 37°57' E 023°39'0 0.0
2017-Sep-21 05:01N 37°57' E 023°39'0 0.0
2017-Sep-20 16:11N 37°57' E 023°39'0 0.0
2017-Sep-20 16:00N 37°57' E 023°39'612.6
2017-Sep-20 15:31N 37°52' E 023°33'713.9
2017-Sep-20 15:00N 37°47' E 023°27'5 4.8
2017-Sep-20 14:00N 37°43' E 023°24'5 9.7
2017-Sep-20 13:30N 37°47' E 023°27'713.9
2017-Sep-20 13:01N 37°52' E 023°33'612.6
2017-Sep-20 12:30N 37°57' E 023°38'0 0.0
2017-Sep-20 12:00N 37°57' E 023°38'0 0.0
2017-Sep-20 11:30N 37°57' E 023°38'0 0.0
2017-Sep-20 11:00N 37°57' E 023°38'0 0.0
2017-Sep-20 10:30N 37°57' E 023°38'0 0.0
2017-Sep-20 10:00N 37°57' E 023°38'3 6.2
2017-Sep-20 09:31N 37°54' E 023°36'713.8
2017-Sep-20 09:01N 37°49' E 023°30'611.6
2017-Sep-20 08:30N 37°45' E 023°25'3 6.8
2017-Sep-20 08:00N 37°43' E 023°22'1 3.0
2017-Sep-20 07:30N 37°43' E 023°24'5 9.1
2017-Sep-20 07:00N 37°47' E 023°27'713.7
2017-Sep-20 06:30N 37°52' E 023°33'713.3
2017-Sep-20 06:01N 37°57' E 023°38'0 0.1
2017-Sep-20 05:30N 37°57' E 023°38'0 0.0
2017-Sep-20 05:00N 37°57' E 023°38'0 0.0
2017-Sep-19 18:04N 37°57' E 023°38'0 0.1
2017-Sep-19 18:00N 37°57' E 023°38'2 3.4
2017-Sep-19 17:30N 37°57' E 023°36'4 8.2
2017-Sep-19 17:01N 37°53' E 023°34'713.7
2017-Sep-19 16:30N 37°48' E 023°29'4 8.7
2017-Sep-19 16:00N 37°45' E 023°26'1 1.8
2017-Sep-19 15:31N 37°44' E 023°25'3 5.4
2017-Sep-19 15:00N 37°42' E 023°22'0 0.0
2017-Sep-19 14:30N 37°42' E 023°22'0 0.0
2017-Sep-19 14:00N 37°42' E 023°22'0 0.0
2017-Sep-19 13:30N 37°42' E 023°22'3 5.8
2017-Sep-19 13:00N 37°44' E 023°25'4 8.9
2017-Sep-19 12:30N 37°48' E 023°28'713.6
2017-Sep-19 12:00N 37°53' E 023°34'5 9.5
2017-Sep-19 11:30N 37°57' E 023°36'2 3.4
2017-Sep-19 11:00N 37°57' E 023°38'0 0.0
2017-Sep-19 10:30N 37°57' E 023°38'0 0.0
2017-Sep-19 10:00N 37°57' E 023°38'8 8.9
2017-Sep-19 09:10N 37°51' E 023°32'213.8
2017-Sep-19 09:01N 37°49' E 023°31'612.4
2017-Sep-19 08:31N 37°45' E 023°25'3 6.7
2017-Sep-19 08:00N 37°43' E 023°22'2 3.4
2017-Sep-19 07:30N 37°43' E 023°24'5 9.3
2017-Sep-19 07:00N 37°47' E 023°27'713.8
2017-Sep-19 06:30N 37°52' E 023°33'612.8
2017-Sep-19 06:00N 37°57' E 023°38'0 0.0
2017-Sep-19 05:30N 37°57' E 023°38'0 0.0
2017-Sep-19 05:00N 37°57' E 023°38'0 0.0
2017-Sep-18 16:12N 37°57' E 023°38'0 0.4
2017-Sep-18 16:00N 37°57' E 023°38'612.9
2017-Sep-18 15:30N 37°52' E 023°33'713.9
2017-Sep-18 15:00N 37°47' E 023°27'3 6.1
2017-Sep-18 14:30N 37°44' E 023°25'2 3.8
2017-Sep-18 14:00N 37°43' E 023°23'5 9.6
2017-Sep-18 13:30N 37°47' E 023°26'713.8
2017-Sep-18 13:00N 37°52' E 023°33'713.1
2017-Sep-18 12:31N 37°57' E 023°38'0 0.2
2017-Sep-18 12:00N 37°57' E 023°38'0 0.0
2017-Sep-18 11:31N 37°57' E 023°38'0 0.0
2017-Sep-18 11:00N 37°57' E 023°38'0 0.0
2017-Sep-18 10:30N 37°57' E 023°38'0 0.0
2017-Sep-18 10:00N 37°57' E 023°38'3 6.2
2017-Sep-18 09:30N 37°55' E 023°36'714.1
2017-Sep-18 09:00N 37°49' E 023°30'611.3
2017-Sep-18 08:30N 37°45' E 023°25'3 7.0
2017-Sep-18 08:01N 37°43' E 023°22'2 4.1
2017-Sep-18 07:31N 37°43' E 023°25'1211.6
2017-Sep-18 06:29N 37°53' E 023°34'611.5
2017-Sep-18 06:00N 37°57' E 023°39'0 0.0
2017-Sep-18 05:30N 37°57' E 023°39'0 0.0
2017-Sep-18 05:00N 37°57' E 023°39'0 0.0
2017-Sep-17 17:58N 37°57' E 023°39'2 4.7
2017-Sep-17 17:30N 37°55' E 023°36'713.8
2017-Sep-17 17:01N 37°50' E 023°31'713.6
2017-Sep-17 16:31N 37°45' E 023°25'1 2.9
2017-Sep-17 16:00N 37°44' E 023°25'1 1.7
2017-Sep-17 15:30N 37°43' E 023°24'510.0
2017-Sep-17 15:00N 37°47' E 023°27'713.9
2017-Sep-17 14:31N 37°52' E 023°34'612.0
2017-Sep-17 14:00N 37°57' E 023°39'3 6.0
2017-Sep-17 13:31N 37°55' E 023°36'713.9
2017-Sep-17 13:00N 37°49' E 023°30'612.0
2017-Sep-17 12:31N 37°45' E 023°25'1 2.3
2017-Sep-17 12:00N 37°44' E 023°25'1 1.8
2017-Sep-17 11:30N 37°43' E 023°24'4 9.0
2017-Sep-17 11:00N 37°47' E 023°27'713.8
2017-Sep-17 10:30N 37°52' E 023°33'713.0
2017-Sep-17 10:00N 37°57' E 023°38'0 0.2
2017-Sep-17 09:30N 37°57' E 023°39'612.6
2017-Sep-17 09:00N 37°52' E 023°33'714.2
2017-Sep-17 08:31N 37°47' E 023°27'4 7.5
2017-Sep-17 08:00N 37°44' E 023°25'0 0.9
2017-Sep-17 07:31N 37°43' E 023°25'4 8.3
2017-Sep-17 07:00N 37°47' E 023°27'713.9
2017-Sep-17 06:31N 37°52' E 023°33'713.0
2017-Sep-17 06:00N 37°57' E 023°39'0 0.0
2017-Sep-17 05:30N 37°57' E 023°39'0 0.0
2017-Sep-17 05:00N 37°57' E 023°39'0 0.0
2017-Sep-16 18:11N 37°57' E 023°39'0 0.0
2017-Sep-16 18:00N 37°57' E 023°39'612.6
2017-Sep-16 17:30N 37°52' E 023°33'714.1
2017-Sep-16 17:01N 37°47' E 023°27'3 6.1
2017-Sep-16 16:30N 37°44' E 023°25'2 3.3
2017-Sep-16 16:01N 37°43' E 023°24'4 8.9
2017-Sep-16 15:30N 37°47' E 023°26'713.8
2017-Sep-16 15:00N 37°52' E 023°33'713.1
2017-Sep-16 14:30N 37°57' E 023°38'0 0.1
2017-Sep-16 14:00N 37°57' E 023°38'713.3
2017-Sep-16 13:30N 37°52' E 023°33'714.1
2017-Sep-16 13:01N 37°47' E 023°26'3 6.7
2017-Sep-16 12:30N 37°44' E 023°25'0 0.7
2017-Sep-16 12:01N 37°43' E 023°25'4 8.3
2017-Sep-16 11:31N 37°47' E 023°27'713.7
2017-Sep-16 11:00N 37°52' E 023°33'612.8
2017-Sep-16 10:31N 37°57' E 023°38'0 0.1
2017-Sep-16 10:00N 37°57' E 023°39'612.8
2017-Sep-16 09:30N 37°52' E 023°33'714.0
2017-Sep-16 09:00N 37°47' E 023°27'3 6.0
2017-Sep-16 08:30N 37°44' E 023°25'3 5.4
2017-Sep-16 08:00N 37°43' E 023°23'3 6.0
2017-Sep-16 07:30N 37°45' E 023°25'612.4
2017-Sep-16 07:00N 37°49' E 023°30'713.6
2017-Sep-16 06:30N 37°55' E 023°36'3 5.8
2017-Sep-16 06:00N 37°57' E 023°38'0 0.0
2017-Sep-16 05:30N 37°57' E 023°38'0 0.0
2017-Sep-16 05:00N 37°57' E 023°38'0 0.0
2017-Sep-15 18:09N 37°57' E 023°38'0 0.3
2017-Sep-15 18:00N 37°57' E 023°38'713.1
2017-Sep-15 17:30N 37°52' E 023°33'714.2
2017-Sep-15 17:00N 37°47' E 023°26'5 9.7
2017-Sep-15 16:30N 37°43' E 023°23'3 5.4
2017-Sep-15 16:01N 37°45' E 023°25'4 7.9
2017-Sep-15 15:30N 37°48' E 023°28'713.5
2017-Sep-15 15:00N 37°53' E 023°34'510.4
2017-Sep-15 14:30N 37°57' E 023°38'0 0.0
2017-Sep-15 14:00N 37°57' E 023°38'0 0.0
2017-Sep-15 13:30N 37°57' E 023°38'612.1
2017-Sep-15 13:00N 37°52' E 023°34'714.4
2017-Sep-15 12:30N 37°47' E 023°27'4 8.2
2017-Sep-15 12:00N 37°43' E 023°25'0 0.4
2017-Sep-15 11:31N 37°44' E 023°25'4 8.0
2017-Sep-15 11:01N 37°47' E 023°27'713.5
2017-Sep-15 10:31N 37°52' E 023°33'612.7
2017-Sep-15 10:00N 37°57' E 023°38'2 4.8
2017-Sep-15 09:30N 37°55' E 023°36'714.3
2017-Sep-15 09:00N 37°49' E 023°30'612.4
2017-Sep-15 08:30N 37°45' E 023°25'3 6.9
2017-Sep-15 08:00N 37°42' E 023°22'3 6.8
2017-Sep-15 07:30N 37°45' E 023°25'612.0
2017-Sep-15 07:01N 37°49' E 023°30'713.5
2017-Sep-15 06:30N 37°55' E 023°36'3 6.3
2017-Sep-15 06:00N 37°57' E 023°38'0 0.0
2017-Sep-15 05:30N 37°57' E 023°38'0 0.0
2017-Sep-15 05:00N 37°57' E 023°38'0 0.0
2017-Sep-14 16:06N 37°57' E 023°38'0 0.0
2017-Sep-14 16:00N 37°57' E 023°38'611.9
2017-Sep-14 15:31N 37°52' E 023°34'714.3
2017-Sep-14 15:00N 37°47' E 023°27'4 8.0
2017-Sep-14 14:30N 37°44' E 023°25'0 1.0
2017-Sep-14 14:00N 37°43' E 023°25'5 9.1
2017-Sep-14 13:30N 37°47' E 023°27'713.7
2017-Sep-14 13:00N 37°52' E 023°33'612.3
2017-Sep-14 12:30N 37°57' E 023°38'0 0.0
2017-Sep-14 12:00N 37°57' E 023°38'0 0.0
2017-Sep-14 11:30N 37°57' E 023°38'0 0.0
2017-Sep-14 11:00N 37°57' E 023°38'0 0.0
2017-Sep-14 10:30N 37°57' E 023°38'0 0.0
2017-Sep-14 10:00N 37°57' E 023°38'3 5.0
2017-Sep-14 09:31N 37°55' E 023°36'714.3
2017-Sep-14 09:00N 37°49' E 023°31'612.4
2017-Sep-14 08:30N 37°45' E 023°25'3 6.7
2017-Sep-14 08:00N 37°43' E 023°22'3 6.9
2017-Sep-14 07:31N 37°45' E 023°25'4 8.9
2017-Sep-14 07:00N 37°48' E 023°29'  

Dump ship's entire track history